createdAt,value
2023-03-15T00:00:40.854Z,1006.94
2023-03-15T00:01:40.853Z,1006.97
2023-03-15T00:02:40.869Z,1006.97
2023-03-15T00:03:40.879Z,1006.95
2023-03-15T00:04:40.826Z,1006.97
2023-03-15T00:05:40.818Z,1006.99
2023-03-15T00:06:40.829Z,1006.97
2023-03-15T00:07:40.802Z,1006.93
2023-03-15T00:08:40.801Z,1007.00
2023-03-15T00:09:40.812Z,1007.05
2023-03-15T00:10:40.788Z,1007.07
2023-03-15T00:11:40.782Z,1007.07
2023-03-15T00:12:40.779Z,1007.04
2023-03-15T00:13:40.770Z,1007.07
2023-03-15T00:14:40.764Z,1007.08
2023-03-15T00:15:40.796Z,1007.11
2023-03-15T00:16:40.750Z,1007.12
2023-03-15T00:17:40.740Z,1007.10
2023-03-15T00:18:40.738Z,1007.14
2023-03-15T00:19:40.730Z,1007.12
2023-03-15T00:20:40.727Z,1007.16
2023-03-15T00:21:40.723Z,1007.13
2023-03-15T00:22:40.713Z,1007.16
2023-03-15T00:23:40.724Z,1007.25
2023-03-15T00:24:40.699Z,1007.20
2023-03-15T00:25:40.712Z,1007.30
2023-03-15T00:26:53.424Z,1007.25
2023-03-15T00:27:40.680Z,1007.23
2023-03-15T00:28:40.675Z,1007.30
2023-03-15T00:29:40.673Z,1007.36
2023-03-15T00:30:40.661Z,1007.27
2023-03-15T00:31:40.664Z,1007.32
2023-03-15T00:32:40.688Z,1007.35
2023-03-15T00:33:40.643Z,1007.33
2023-03-15T00:34:40.645Z,1007.34
2023-03-15T00:35:40.640Z,1007.32
2023-03-15T00:36:40.624Z,1007.34
2023-03-15T00:37:40.756Z,1007.28
2023-03-15T00:38:40.614Z,1007.26
2023-03-15T00:39:40.607Z,1007.23
2023-03-15T00:40:40.600Z,1007.30
2023-03-15T00:41:40.630Z,1007.32
2023-03-15T00:42:40.587Z,1007.33
2023-03-15T00:43:40.580Z,1007.34
2023-03-15T00:44:40.572Z,1007.40
2023-03-15T00:45:40.569Z,1007.38
2023-03-15T00:46:40.605Z,1007.44
2023-03-15T00:47:40.555Z,1007.47
2023-03-15T00:48:40.560Z,1007.46
2023-03-15T00:49:40.542Z,1007.48
2023-03-15T00:50:40.533Z,1007.46
2023-03-15T00:51:40.528Z,1007.44
2023-03-15T00:52:40.518Z,1007.41
2023-03-15T00:53:40.516Z,1007.37
2023-03-15T00:54:40.513Z,1007.40
2023-03-15T00:55:40.502Z,1007.50
2023-03-15T00:56:40.495Z,1007.48
2023-03-15T00:57:40.631Z,1007.48
2023-03-15T00:58:40.500Z,1007.46
2023-03-15T00:59:40.479Z,1007.46
2023-03-15T01:00:40.468Z,1007.42
2023-03-15T01:01:40.492Z,1007.40
2023-03-15T01:02:40.496Z,1007.37
2023-03-15T01:03:40.454Z,1007.38
2023-03-15T01:04:40.448Z,1007.40
2023-03-15T01:05:40.444Z,1007.41
2023-03-15T01:06:40.427Z,1007.35
2023-03-15T01:07:40.424Z,1007.39
2023-03-15T01:08:40.416Z,1007.38
2023-03-15T01:09:40.412Z,1007.38
2023-03-15T01:10:40.399Z,1007.41
2023-03-15T01:11:40.401Z,1007.40
2023-03-15T01:12:40.430Z,1007.39
2023-03-15T01:13:40.408Z,1007.44
2023-03-15T01:14:40.382Z,1007.40
2023-03-15T01:15:40.447Z,1007.38
2023-03-15T01:16:40.364Z,1007.42
2023-03-15T01:17:40.478Z,1007.40
2023-03-15T01:18:40.350Z,1007.42
2023-03-15T01:19:40.348Z,1007.41
2023-03-15T01:20:40.339Z,1007.45
2023-03-15T01:21:40.330Z,1007.43
2023-03-15T01:22:40.324Z,1007.46
2023-03-15T01:23:40.320Z,1007.53
2023-03-15T01:24:40.314Z,1007.47
2023-03-15T01:25:40.307Z,1007.50
2023-03-15T01:26:40.295Z,1007.50
2023-03-15T01:27:40.300Z,1007.49
2023-03-15T01:28:40.289Z,1007.54
2023-03-15T01:29:40.310Z,1007.54
2023-03-15T01:30:40.280Z,1007.59
2023-03-15T01:31:40.314Z,1007.56
2023-03-15T01:32:40.324Z,1007.49
2023-03-15T01:33:40.252Z,1007.54
2023-03-15T01:34:40.245Z,1007.53
2023-03-15T01:35:40.249Z,1007.51
2023-03-15T01:36:40.234Z,1007.51
2023-03-15T01:37:40.273Z,1007.52
2023-03-15T01:38:40.223Z,1007.60
2023-03-15T01:39:40.214Z,1007.59
2023-03-15T01:40:40.212Z,1007.64
2023-03-15T01:41:40.208Z,1007.63
2023-03-15T01:42:40.191Z,1007.62
2023-03-15T01:43:40.191Z,1007.63
2023-03-15T01:44:40.183Z,1007.67
2023-03-15T01:45:40.263Z,1007.69
2023-03-15T01:46:40.192Z,1007.66
2023-03-15T01:47:40.163Z,1007.69
2023-03-15T01:48:40.155Z,1007.66
2023-03-15T01:49:40.150Z,1007.65
2023-03-15T01:50:40.143Z,1007.68
2023-03-15T01:51:40.137Z,1007.70
2023-03-15T01:52:40.176Z,1007.66
2023-03-15T01:53:40.125Z,1007.67
2023-03-15T01:54:40.115Z,1007.67
2023-03-15T01:55:40.114Z,1007.68
2023-03-15T01:56:40.109Z,1007.68
2023-03-15T01:57:40.220Z,1007.67
2023-03-15T01:58:40.096Z,1007.64
2023-03-15T01:59:40.094Z,1007.71
2023-03-15T02:00:40.145Z,1007.69
2023-03-15T02:01:40.099Z,1007.67
2023-03-15T02:02:40.101Z,1007.70
2023-03-15T02:03:40.063Z,1007.70
2023-03-15T02:04:40.055Z,1007.68
2023-03-15T02:05:40.055Z,1007.69
2023-03-15T02:06:40.050Z,1007.67
2023-03-15T02:07:40.039Z,1007.70
2023-03-15T02:08:40.032Z,1007.62
2023-03-15T02:09:40.026Z,1007.65
2023-03-15T02:10:40.017Z,1007.68
2023-03-15T02:11:40.015Z,1007.70
2023-03-15T02:12:40.012Z,1007.66
2023-03-15T02:13:39.999Z,1007.65
2023-03-15T02:14:39.993Z,1007.61
2023-03-15T02:15:39.990Z,1007.59
2023-03-15T02:16:40.038Z,1007.60
2023-03-15T02:17:39.997Z,1007.61
2023-03-15T02:18:39.971Z,1007.61
2023-03-15T02:19:39.968Z,1007.66
2023-03-15T02:20:39.961Z,1007.65
2023-03-15T02:21:39.952Z,1007.63
2023-03-15T02:22:39.948Z,1007.65
2023-03-15T02:23:39.938Z,1007.64
2023-03-15T02:24:39.933Z,1007.63
2023-03-15T02:25:39.931Z,1007.64
2023-03-15T02:26:39.921Z,1007.67
2023-03-15T02:27:39.911Z,1007.67
2023-03-15T02:28:39.906Z,1007.65
2023-03-15T02:29:39.900Z,1007.66
2023-03-15T02:30:39.896Z,1007.66
2023-03-15T02:31:39.905Z,1007.66
2023-03-15T02:32:40.005Z,1007.67
2023-03-15T02:33:39.898Z,1007.67
2023-03-15T02:34:39.866Z,1007.66
2023-03-15T02:35:39.878Z,1007.65
2023-03-15T02:36:39.852Z,1007.73
2023-03-15T02:37:39.919Z,1007.78
2023-03-15T02:38:39.840Z,1007.75
2023-03-15T02:39:39.837Z,1007.76
2023-03-15T02:40:39.827Z,1007.76
2023-03-15T02:41:39.831Z,1007.80
2023-03-15T02:42:39.814Z,1007.78
2023-03-15T02:43:39.809Z,1007.80
2023-03-15T02:44:39.810Z,1007.80
2023-03-15T02:45:39.953Z,1007.79
2023-03-15T02:46:39.793Z,1007.84
2023-03-15T02:47:39.786Z,1007.84
2023-03-15T02:48:39.783Z,1007.86
2023-03-15T02:49:39.796Z,1007.86
2023-03-15T02:50:39.793Z,1007.86
2023-03-15T02:51:39.770Z,1007.90
2023-03-15T02:52:39.810Z,1007.90
2023-03-15T02:53:39.748Z,1007.94
2023-03-15T02:54:39.738Z,1007.97
2023-03-15T02:55:39.743Z,1007.98
2023-03-15T02:56:39.729Z,1007.98
2023-03-15T02:57:39.754Z,1007.98
2023-03-15T02:58:39.738Z,1008.01
2023-03-15T02:59:39.735Z,1008.01
2023-03-15T03:00:39.722Z,1008.04
2023-03-15T03:01:39.813Z,1007.99
2023-03-15T03:02:39.725Z,1007.98
2023-03-15T03:03:40.049Z,1007.99
2023-03-15T03:04:39.740Z,1008.00
2023-03-15T03:05:39.777Z,1008.02
2023-03-15T03:06:39.700Z,1008.01
2023-03-15T03:07:39.692Z,1008.03
2023-03-15T03:08:39.691Z,1008.05
2023-03-15T03:09:39.649Z,1008.03
2023-03-15T03:10:39.668Z,1008.04
2023-03-15T03:11:39.636Z,1008.07
2023-03-15T03:12:39.628Z,1008.08
2023-03-15T03:13:39.628Z,1008.09
2023-03-15T03:14:39.619Z,1008.14
2023-03-15T03:15:39.620Z,1008.12
2023-03-15T03:16:39.653Z,1008.12
2023-03-15T03:17:39.596Z,1008.13
2023-03-15T03:18:39.588Z,1008.12
2023-03-15T03:19:39.582Z,1008.14
2023-03-15T03:20:39.582Z,1008.17
2023-03-15T03:21:39.583Z,1008.11
2023-03-15T03:22:39.556Z,1008.11
2023-03-15T03:23:39.552Z,1008.17
2023-03-15T03:24:39.543Z,1008.15
2023-03-15T03:25:39.550Z,1008.19
2023-03-15T03:26:39.535Z,1008.19
2023-03-15T03:27:39.522Z,1008.20
2023-03-15T03:28:39.546Z,1008.21
2023-03-15T03:29:39.519Z,1008.26
2023-03-15T03:30:39.690Z,1008.26
2023-03-15T03:31:39.496Z,1008.28
2023-03-15T03:32:39.558Z,1008.28
2023-03-15T03:33:39.483Z,1008.28
2023-03-15T03:34:39.474Z,1008.31
2023-03-15T03:35:39.508Z,1008.29
2023-03-15T03:36:39.464Z,1008.30
2023-03-15T03:37:39.475Z,1008.30
2023-03-15T03:38:39.446Z,1008.32
2023-03-15T03:39:39.450Z,1008.32
2023-03-15T03:40:39.439Z,1008.33
2023-03-15T03:41:39.439Z,1008.35
2023-03-15T03:42:39.443Z,1008.33
2023-03-15T03:43:39.425Z,1008.31
2023-03-15T03:44:39.412Z,1008.36
2023-03-15T03:45:39.401Z,1008.37
2023-03-15T03:46:39.410Z,1008.38
2023-03-15T03:47:39.390Z,1008.36
2023-03-15T03:48:39.387Z,1008.39
2023-03-15T03:49:39.374Z,1008.44
2023-03-15T03:50:39.371Z,1008.44
2023-03-15T03:51:39.363Z,1008.49
2023-03-15T03:52:39.359Z,1008.49
2023-03-15T03:53:39.366Z,1008.48
2023-03-15T03:54:39.340Z,1008.46
2023-03-15T03:55:39.334Z,1008.54
2023-03-15T03:56:39.332Z,1008.53
2023-03-15T03:57:39.320Z,1008.55
2023-03-15T03:58:39.336Z,1008.56
2023-03-15T03:59:39.309Z,1008.56
2023-03-15T04:00:39.311Z,1008.59
2023-03-15T04:01:39.293Z,1008.64
2023-03-15T04:02:39.335Z,1008.67
2023-03-15T04:03:39.631Z,1008.65
2023-03-15T04:04:39.309Z,1008.63
2023-03-15T04:05:39.269Z,1008.67
2023-03-15T04:06:39.263Z,1008.73
2023-03-15T04:07:39.267Z,1008.77
2023-03-15T04:08:39.285Z,1008.75
2023-03-15T04:09:39.261Z,1008.73
2023-03-15T04:10:39.247Z,1008.76
2023-03-15T04:11:39.229Z,1008.78
2023-03-15T04:12:39.320Z,1008.85
2023-03-15T04:13:39.215Z,1008.82
2023-03-15T04:14:39.210Z,1008.83
2023-03-15T04:15:39.271Z,1008.87
2023-03-15T04:16:39.212Z,1008.84
2023-03-15T04:17:39.188Z,1008.87
2023-03-15T04:18:39.182Z,1008.84
2023-03-15T04:19:39.171Z,1008.85
2023-03-15T04:20:39.167Z,1008.87
2023-03-15T04:21:39.158Z,1008.94
2023-03-15T04:22:39.155Z,1008.89
2023-03-15T04:23:39.151Z,1008.90
2023-03-15T04:24:39.157Z,1008.90
2023-03-15T04:25:39.149Z,1008.95
2023-03-15T04:26:39.134Z,1008.95
2023-03-15T04:27:39.129Z,1008.94
2023-03-15T04:28:39.116Z,1008.97
2023-03-15T04:29:39.111Z,1008.98
2023-03-15T04:30:39.111Z,1008.98
2023-03-15T04:31:39.188Z,1009.03
2023-03-15T04:32:39.139Z,1009.04
2023-03-15T04:33:39.095Z,1009.06
2023-03-15T04:34:39.073Z,1009.06
2023-03-15T04:35:39.154Z,1009.09
2023-03-15T04:36:39.072Z,1009.06
2023-03-15T04:37:39.057Z,1009.08
2023-03-15T04:38:39.052Z,1009.06
2023-03-15T04:39:39.045Z,1009.08
2023-03-15T04:40:39.060Z,1009.07
2023-03-15T04:41:39.050Z,1009.06
2023-03-15T04:42:39.031Z,1009.03
2023-03-15T04:43:39.022Z,1009.08
2023-03-15T04:44:39.015Z,1009.03
2023-03-15T04:45:39.015Z,1009.06
2023-03-15T04:46:39.027Z,1009.06
2023-03-15T04:47:38.995Z,1009.07
2023-03-15T04:48:39.005Z,1009.08
2023-03-15T04:49:38.983Z,1009.07
2023-03-15T04:50:38.977Z,1009.04
2023-03-15T04:51:38.965Z,1008.98
2023-03-15T04:52:38.960Z,1009.02
2023-03-15T04:53:38.962Z,1009.00
2023-03-15T04:54:38.948Z,1009.01
2023-03-15T04:55:38.941Z,1009.03
2023-03-15T04:56:38.934Z,1009.08
2023-03-15T04:57:38.944Z,1009.15
2023-03-15T04:58:38.922Z,1009.18
2023-03-15T04:59:38.916Z,1009.22
2023-03-15T05:00:38.934Z,1009.28
2023-03-15T05:01:38.919Z,1009.22
2023-03-15T05:02:38.896Z,1009.25
2023-03-15T05:03:38.887Z,1009.23
2023-03-15T05:04:38.878Z,1009.25
2023-03-15T05:05:38.881Z,1009.22
2023-03-15T05:06:38.865Z,1009.21
2023-03-15T05:07:38.873Z,1009.27
2023-03-15T05:08:39.306Z,1009.23
2023-03-15T05:09:39.942Z,1009.26
2023-03-15T05:10:38.836Z,1009.29
2023-03-15T05:11:38.830Z,1009.28
2023-03-15T05:12:38.827Z,1009.31
2023-03-15T05:13:38.901Z,1009.33
2023-03-15T05:14:38.821Z,1009.34
2023-03-15T05:15:38.806Z,1009.34
2023-03-15T05:16:38.943Z,1009.37
2023-03-15T05:17:38.819Z,1009.39
2023-03-15T05:18:38.786Z,1009.42
2023-03-15T05:19:38.776Z,1009.44
2023-03-15T05:20:38.781Z,1009.43
2023-03-15T05:21:38.768Z,1009.48
2023-03-15T05:22:38.760Z,1009.48
2023-03-15T05:23:38.763Z,1009.46
2023-03-15T05:24:38.748Z,1009.51
2023-03-15T05:25:38.909Z,1009.49
2023-03-15T05:26:38.750Z,1009.50
2023-03-15T05:27:38.746Z,1009.51
2023-03-15T05:28:38.719Z,1009.48
2023-03-15T05:29:38.755Z,1009.53
2023-03-15T05:30:38.726Z,1009.54
2023-03-15T05:31:38.759Z,1009.54
2023-03-15T05:32:38.776Z,1009.53
2023-03-15T05:33:38.694Z,1009.53
2023-03-15T05:34:38.689Z,1009.59
2023-03-15T05:35:38.696Z,1009.60
2023-03-15T05:36:38.673Z,1009.65
2023-03-15T05:37:38.658Z,1009.71
2023-03-15T05:38:38.651Z,1009.72
2023-03-15T05:39:38.642Z,1009.74
2023-03-15T05:40:38.641Z,1009.75
2023-03-15T05:41:38.630Z,1009.73
2023-03-15T05:42:38.625Z,1009.76
2023-03-15T05:43:38.626Z,1009.76
2023-03-15T05:44:38.612Z,1009.83
2023-03-15T05:45:38.669Z,1009.83
2023-03-15T05:46:38.617Z,1009.88
2023-03-15T05:47:38.595Z,1009.91
2023-03-15T05:48:38.598Z,1009.92
2023-03-15T05:49:38.579Z,1009.94
2023-03-15T05:50:38.584Z,1010.00
2023-03-15T05:51:38.564Z,1009.97
2023-03-15T05:52:38.558Z,1009.97
2023-03-15T05:53:38.558Z,1010.03
2023-03-15T05:54:38.546Z,1010.04
2023-03-15T05:55:38.537Z,1010.06
2023-03-15T05:56:38.530Z,1010.09
2023-03-15T05:57:38.524Z,1010.09
2023-03-15T05:58:38.542Z,1010.10
2023-03-15T05:59:38.515Z,1010.12
2023-03-15T06:00:38.521Z,1010.12
2023-03-15T06:01:38.520Z,1010.13
2023-03-15T06:02:38.491Z,1010.13
2023-03-15T06:03:38.582Z,1010.13
2023-03-15T06:04:38.480Z,1010.18
2023-03-15T06:05:38.475Z,1010.21
2023-03-15T06:06:38.469Z,1010.20
2023-03-15T06:07:38.455Z,1010.20
2023-03-15T06:08:38.461Z,1010.22
2023-03-15T06:09:38.444Z,1010.24
2023-03-15T06:10:38.432Z,1010.27
2023-03-15T06:11:38.432Z,1010.24
2023-03-15T06:12:38.420Z,1010.29
2023-03-15T06:13:38.418Z,1010.27
2023-03-15T06:14:38.408Z,1010.26
2023-03-15T06:15:38.401Z,1010.29
2023-03-15T06:16:38.540Z,1010.31
2023-03-15T06:17:38.404Z,1010.36
2023-03-15T06:18:38.379Z,1010.35
2023-03-15T06:19:38.368Z,1010.37
2023-03-15T06:20:38.366Z,1010.34
2023-03-15T06:21:38.358Z,1010.38
2023-03-15T06:22:38.351Z,1010.37
2023-03-15T06:23:38.342Z,1010.40
2023-03-15T06:24:38.342Z,1010.44
2023-03-15T06:25:38.345Z,1010.47
2023-03-15T06:26:38.338Z,1010.43
2023-03-15T06:27:38.318Z,1010.44
2023-03-15T06:28:38.312Z,1010.50
2023-03-15T06:29:38.305Z,1010.51
2023-03-15T06:30:38.334Z,1010.54
2023-03-15T06:31:38.287Z,1010.53
2023-03-15T06:32:38.318Z,1010.54
2023-03-15T06:33:38.296Z,1010.53
2023-03-15T06:34:38.282Z,1010.53
2023-03-15T06:35:38.278Z,1010.55
2023-03-15T06:36:38.256Z,1010.55
2023-03-15T06:37:38.247Z,1010.57
2023-03-15T06:38:38.243Z,1010.58
2023-03-15T06:39:38.233Z,1010.56
2023-03-15T06:40:38.237Z,1010.55
2023-03-15T06:41:38.219Z,1010.55
2023-03-15T06:42:38.223Z,1010.58
2023-03-15T06:43:38.215Z,1010.59
2023-03-15T06:44:38.213Z,1010.60
2023-03-15T06:45:38.192Z,1010.62
2023-03-15T06:46:38.186Z,1010.65
2023-03-15T06:47:38.180Z,1010.63
2023-03-15T06:48:38.179Z,1010.66
2023-03-15T06:49:38.182Z,1010.66
2023-03-15T06:50:46.905Z,1010.70
2023-03-15T06:51:38.149Z,1010.73
2023-03-15T06:52:38.150Z,1010.78
2023-03-15T06:53:38.135Z,1010.81
2023-03-15T06:54:38.131Z,1010.86
2023-03-15T06:55:38.122Z,1010.88
2023-03-15T06:56:38.116Z,1010.89
2023-03-15T06:57:38.108Z,1010.89
2023-03-15T06:58:38.102Z,1010.91
2023-03-15T06:59:38.101Z,1010.97
2023-03-15T07:00:38.091Z,1010.96
2023-03-15T07:01:38.132Z,1010.96
2023-03-15T07:02:38.127Z,1011.02
2023-03-15T07:03:38.074Z,1011.01
2023-03-15T07:04:38.068Z,1011.05
2023-03-15T07:05:38.077Z,1011.08
2023-03-15T07:06:38.060Z,1011.11
2023-03-15T07:07:38.050Z,1011.14
2023-03-15T07:08:38.037Z,1011.16
2023-03-15T07:09:38.030Z,1011.20
2023-03-15T07:10:38.030Z,1011.16
2023-03-15T07:11:38.021Z,1011.16
2023-03-15T07:12:38.011Z,1011.16
2023-03-15T07:13:38.012Z,1011.19
2023-03-15T07:14:38.148Z,1011.18
2023-03-15T07:15:38.073Z,1011.20
2023-03-15T07:16:37.984Z,1011.23
2023-03-15T07:17:37.997Z,1011.27
2023-03-15T07:18:37.973Z,1011.27
2023-03-15T07:19:46.802Z,1011.31
2023-03-15T07:20:38.005Z,1011.35
2023-03-15T07:21:37.972Z,1011.34
2023-03-15T07:22:37.945Z,1011.39
2023-03-15T07:23:37.942Z,1011.43
2023-03-15T07:24:37.932Z,1011.40
2023-03-15T07:25:53.982Z,1011.41
2023-03-15T07:26:37.923Z,1011.44
2023-03-15T07:27:37.932Z,1011.45
2023-03-15T07:28:37.908Z,1011.46
2023-03-15T07:29:37.905Z,1011.48
2023-03-15T07:30:37.889Z,1011.52
2023-03-15T07:31:37.895Z,1011.49
2023-03-15T07:32:38.042Z,1011.55
2023-03-15T07:33:37.865Z,1011.56
2023-03-15T07:34:37.869Z,1011.58
2023-03-15T07:35:37.931Z,1011.58
2023-03-15T07:36:37.862Z,1011.59
2023-03-15T07:37:41.303Z,1011.60
2023-03-15T07:38:37.842Z,1011.57
2023-03-15T07:39:37.828Z,1011.55
2023-03-15T07:40:37.820Z,1011.61
2023-03-15T07:41:37.847Z,1011.63
2023-03-15T07:42:37.805Z,1011.65
2023-03-15T07:43:37.804Z,1011.66
2023-03-15T07:44:37.792Z,1011.68
2023-03-15T07:45:37.782Z,1011.69
2023-03-15T07:46:37.822Z,1011.70
2023-03-15T07:47:37.772Z,1011.70
2023-03-15T07:48:37.774Z,1011.73
2023-03-15T07:49:37.755Z,1011.76
2023-03-15T07:50:37.754Z,1011.84
2023-03-15T07:51:37.741Z,1011.84
2023-03-15T07:52:37.731Z,1011.83
2023-03-15T07:53:37.795Z,1011.90
2023-03-15T07:54:37.721Z,1011.93
2023-03-15T07:55:37.735Z,1011.94
2023-03-15T07:56:37.705Z,1011.97
2023-03-15T07:57:37.715Z,1011.97
2023-03-15T07:58:37.698Z,1012.01
2023-03-15T07:59:37.688Z,1012.00
2023-03-15T08:00:37.698Z,1012.04
2023-03-15T08:01:37.727Z,1012.04
2023-03-15T08:02:37.728Z,1012.07
2023-03-15T08:03:37.671Z,1012.06
2023-03-15T08:04:37.657Z,1012.01
2023-03-15T08:05:37.659Z,1012.04
2023-03-15T08:06:37.641Z,1012.07
2023-03-15T08:07:37.632Z,1012.08
2023-03-15T08:08:37.648Z,1012.08
2023-03-15T08:09:37.646Z,1012.10
2023-03-15T08:10:37.613Z,1012.13
2023-03-15T08:11:37.736Z,1012.16
2023-03-15T08:12:37.597Z,1012.19
2023-03-15T08:13:37.591Z,1012.20
2023-03-15T08:14:37.588Z,1012.20
2023-03-15T08:15:37.580Z,1012.23
2023-03-15T08:16:37.618Z,1012.24
2023-03-15T08:17:37.565Z,1012.28
2023-03-15T08:18:37.563Z,1012.27
2023-03-15T08:19:37.809Z,1012.27
2023-03-15T08:20:37.544Z,1012.29
2023-03-15T08:21:37.549Z,1012.31
2023-03-15T08:22:38.540Z,1012.32
2023-03-15T08:23:37.537Z,1012.36
2023-03-15T08:24:37.519Z,1012.40
2023-03-15T08:25:37.537Z,1012.42
2023-03-15T08:26:37.503Z,1012.43
2023-03-15T08:27:37.500Z,1012.43
2023-03-15T08:28:37.492Z,1012.46
2023-03-15T08:29:37.487Z,1012.46
2023-03-15T08:30:37.496Z,1012.49
2023-03-15T08:31:37.547Z,1012.49
2023-03-15T08:32:37.518Z,1012.50
2023-03-15T08:33:37.467Z,1012.51
2023-03-15T08:34:37.458Z,1012.56
2023-03-15T08:35:37.546Z,1012.51
2023-03-15T08:36:37.554Z,1012.53
2023-03-15T08:37:37.448Z,1012.52
2023-03-15T08:38:37.428Z,1012.54
2023-03-15T08:39:37.421Z,1012.53
2023-03-15T08:40:39.491Z,1012.54
2023-03-15T08:41:37.434Z,1012.59
2023-03-15T08:42:37.416Z,1012.55
2023-03-15T08:43:37.399Z,1012.60
2023-03-15T08:44:37.393Z,1012.63
2023-03-15T08:45:56.736Z,1012.66
2023-03-15T08:46:37.464Z,1012.68
2023-03-15T08:47:37.381Z,1012.65
2023-03-15T08:48:37.359Z,1012.71
2023-03-15T08:49:37.355Z,1012.69
2023-03-15T08:50:37.351Z,1012.69
2023-03-15T08:51:37.344Z,1012.74
2023-03-15T08:52:37.332Z,1012.79
2023-03-15T08:53:37.337Z,1012.79
2023-03-15T08:54:37.323Z,1012.81
2023-03-15T08:55:37.314Z,1012.82
2023-03-15T08:56:37.306Z,1012.84
2023-03-15T08:57:37.319Z,1012.88
2023-03-15T08:58:37.297Z,1012.90
2023-03-15T08:59:37.286Z,1012.88
2023-03-15T09:00:37.285Z,1012.92
2023-03-15T09:01:37.282Z,1012.91
2023-03-15T09:02:37.421Z,1012.90
2023-03-15T09:03:37.262Z,1012.94
2023-03-15T09:04:37.325Z,1012.92
2023-03-15T09:05:37.250Z,1012.91
2023-03-15T09:06:37.240Z,1012.94
2023-03-15T09:07:37.235Z,1012.95
2023-03-15T09:08:37.226Z,1012.95
2023-03-15T09:09:37.222Z,1012.98
2023-03-15T09:10:37.221Z,1012.94
2023-03-15T09:11:37.213Z,1012.98
2023-03-15T09:12:37.205Z,1012.98
2023-03-15T09:13:37.216Z,1012.94
2023-03-15T09:14:37.189Z,1012.98
2023-03-15T09:15:37.182Z,1012.95
2023-03-15T09:16:37.217Z,1012.99
2023-03-15T09:17:37.177Z,1012.98
2023-03-15T09:18:37.164Z,1012.95
2023-03-15T09:19:37.327Z,1012.95
2023-03-15T09:20:37.153Z,1012.96
2023-03-15T09:21:37.149Z,1012.99
2023-03-15T09:22:39.307Z,1013.00
2023-03-15T09:23:37.135Z,1013.00
2023-03-15T09:24:37.136Z,1012.98
2023-03-15T09:25:37.123Z,1012.97
2023-03-15T09:26:37.132Z,1013.01
2023-03-15T09:27:37.125Z,1013.04
2023-03-15T09:28:37.106Z,1013.05
2023-03-15T09:29:37.118Z,1013.07
2023-03-15T09:30:37.130Z,1013.06
2023-03-15T09:31:37.088Z,1013.09
2023-03-15T09:32:37.114Z,1013.07
2023-03-15T09:33:37.076Z,1013.10
2023-03-15T09:34:41.908Z,1013.11
2023-03-15T09:35:37.089Z,1013.14
2023-03-15T09:36:37.051Z,1013.14
2023-03-15T09:37:37.053Z,1013.09
2023-03-15T09:38:37.044Z,1013.17
2023-03-15T09:39:37.057Z,1013.18
2023-03-15T09:40:37.029Z,1013.22
2023-03-15T09:41:37.023Z,1013.26
2023-03-15T09:42:37.017Z,1013.23
2023-03-15T09:43:37.010Z,1013.26
2023-03-15T09:44:37.004Z,1013.27
2023-03-15T09:45:37.028Z,1013.31
2023-03-15T09:46:37.069Z,1013.30
2023-03-15T09:47:37.013Z,1013.28
2023-03-15T09:48:36.987Z,1013.29
2023-03-15T09:49:36.977Z,1013.28
2023-03-15T09:50:36.976Z,1013.30
2023-03-15T09:51:36.971Z,1013.32
2023-03-15T09:52:36.956Z,1013.34
2023-03-15T09:53:36.951Z,1013.39
2023-03-15T09:54:36.948Z,1013.36
2023-03-15T09:55:36.940Z,1013.37
2023-03-15T09:56:36.943Z,1013.34
2023-03-15T09:57:36.923Z,1013.32
2023-03-15T09:58:36.917Z,1013.29
2023-03-15T09:59:36.910Z,1013.29
2023-03-15T10:00:36.907Z,1013.25
2023-03-15T10:01:37.010Z,1013.21
2023-03-15T10:02:36.893Z,1013.23
2023-03-15T10:03:36.953Z,1013.24
2023-03-15T10:04:36.879Z,1013.29
2023-03-15T10:05:36.875Z,1013.26
2023-03-15T10:06:38.054Z,1013.23
2023-03-15T10:07:36.863Z,1013.22
2023-03-15T10:08:36.856Z,1013.21
2023-03-15T10:09:36.852Z,1013.25
2023-03-15T10:10:36.843Z,1013.25
2023-03-15T10:11:36.838Z,1013.28
2023-03-15T10:12:36.832Z,1013.29
2023-03-15T10:13:36.828Z,1013.24
2023-03-15T10:14:36.818Z,1013.26
2023-03-15T10:15:36.818Z,1013.25
2023-03-15T10:16:36.804Z,1013.27
2023-03-15T10:17:36.827Z,1013.29
2023-03-15T10:18:36.797Z,1013.30
2023-03-15T10:19:36.800Z,1013.31
2023-03-15T10:20:36.789Z,1013.32
2023-03-15T10:21:36.784Z,1013.29
2023-03-15T10:22:36.770Z,1013.30
2023-03-15T10:23:36.770Z,1013.31
2023-03-15T10:24:36.759Z,1013.34
2023-03-15T10:25:36.753Z,1013.33
2023-03-15T10:26:36.743Z,1013.31
2023-03-15T10:27:36.738Z,1013.35
2023-03-15T10:28:37.243Z,1013.34
2023-03-15T10:29:36.727Z,1013.40
2023-03-15T10:30:36.714Z,1013.39
2023-03-15T10:31:44.586Z,1013.38
2023-03-15T10:32:36.728Z,1013.40
2023-03-15T10:33:36.723Z,1013.36
2023-03-15T10:34:36.688Z,1013.33
2023-03-15T10:35:36.717Z,1013.37
2023-03-15T10:36:36.729Z,1013.35
2023-03-15T10:37:36.675Z,1013.36
2023-03-15T10:38:36.665Z,1013.33
2023-03-15T10:39:36.671Z,1013.42
2023-03-15T10:40:36.655Z,1013.44
2023-03-15T10:41:36.644Z,1013.41
2023-03-15T10:42:37.335Z,1013.41
2023-03-15T10:43:36.641Z,1013.42
2023-03-15T10:44:36.624Z,1013.40
2023-03-15T10:45:36.618Z,1013.41
2023-03-15T10:46:36.752Z,1013.40
2023-03-15T10:47:37.414Z,1013.43
2023-03-15T10:48:36.599Z,1013.43
2023-03-15T10:49:36.613Z,1013.46
2023-03-15T10:50:36.586Z,1013.46
2023-03-15T10:51:36.597Z,1013.44
2023-03-15T10:52:36.578Z,1013.47
2023-03-15T10:53:36.576Z,1013.44
2023-03-15T10:54:36.559Z,1013.46
2023-03-15T10:55:36.566Z,1013.43
2023-03-15T10:56:36.549Z,1013.49
2023-03-15T10:57:36.547Z,1013.49
2023-03-15T10:58:36.541Z,1013.47
2023-03-15T10:59:36.546Z,1013.43
2023-03-15T11:00:36.525Z,1013.49
2023-03-15T11:01:36.548Z,1013.47
2023-03-15T11:02:36.573Z,1013.47
2023-03-15T11:03:36.510Z,1013.49
2023-03-15T11:04:36.500Z,1013.50
2023-03-15T11:05:36.519Z,1013.52
2023-03-15T11:06:36.487Z,1013.52
2023-03-15T11:07:36.484Z,1013.55
2023-03-15T11:08:36.483Z,1013.58
2023-03-15T11:09:36.672Z,1013.56
2023-03-15T11:10:36.462Z,1013.53
2023-03-15T11:11:36.457Z,1013.49
2023-03-15T11:12:36.450Z,1013.55
2023-03-15T11:13:36.445Z,1013.55
2023-03-15T11:14:36.436Z,1013.57
2023-03-15T11:15:36.433Z,1013.55
2023-03-15T11:16:36.481Z,1013.58
2023-03-15T11:17:36.423Z,1013.62
2023-03-15T11:18:36.414Z,1013.68
2023-03-15T11:19:36.415Z,1013.67
2023-03-15T11:20:36.400Z,1013.64
2023-03-15T11:21:36.431Z,1013.66
2023-03-15T11:22:36.393Z,1013.62
2023-03-15T11:23:36.382Z,1013.69
2023-03-15T11:24:36.414Z,1013.70
2023-03-15T11:25:36.377Z,1013.69
2023-03-15T11:26:36.368Z,1013.72
2023-03-15T11:27:36.360Z,1013.73
2023-03-15T11:28:36.369Z,1013.77
2023-03-15T11:29:36.355Z,1013.77
2023-03-15T11:30:36.337Z,1013.79
2023-03-15T11:31:36.409Z,1013.81
2023-03-15T11:32:36.352Z,1013.79
2023-03-15T11:33:36.322Z,1013.85
2023-03-15T11:34:36.316Z,1013.83
2023-03-15T11:35:36.356Z,1013.85
2023-03-15T11:36:36.312Z,1013.86
2023-03-15T11:37:36.321Z,1013.84
2023-03-15T11:38:36.310Z,1013.85
2023-03-15T11:39:36.287Z,1013.90
2023-03-15T11:40:36.278Z,1013.88
2023-03-15T11:41:36.273Z,1013.84
2023-03-15T11:42:36.266Z,1013.84
2023-03-15T11:43:36.271Z,1013.86
2023-03-15T11:44:36.256Z,1013.84
2023-03-15T11:45:36.330Z,1013.85
2023-03-15T11:46:36.242Z,1013.82
2023-03-15T11:47:36.239Z,1013.87
2023-03-15T11:48:36.228Z,1013.89
2023-03-15T11:49:36.259Z,1013.91
2023-03-15T11:50:36.217Z,1013.92
2023-03-15T11:51:36.226Z,1013.94
2023-03-15T11:52:36.214Z,1013.89
2023-03-15T11:53:36.220Z,1013.90
2023-03-15T11:54:36.196Z,1013.89
2023-03-15T11:55:36.189Z,1013.95
2023-03-15T11:56:36.184Z,1013.98
2023-03-15T11:57:36.190Z,1013.94
2023-03-15T11:58:36.231Z,1013.94
2023-03-15T11:59:36.189Z,1013.93
2023-03-15T12:00:36.156Z,1013.93
2023-03-15T12:01:36.151Z,1013.97
2023-03-15T12:02:36.203Z,1013.96
2023-03-15T12:03:36.211Z,1013.93
2023-03-15T12:04:36.134Z,1013.94
2023-03-15T12:05:36.129Z,1013.91